ESOE/ORB METAR and TAF weather

Enter ICAO airport designator
Station Type Date Time Source
ESOE METAR 2019/12/07 09:50 UTC NOAA

ESOE 070950Z 29004KT 9999 BKN020 05/03 Q0985


Station Type Date Time Source
ESOE Decoded METAR 2019/12/07 09:50 UTC NOAA

Orebro Private , Sweden (ESOE) 59-14N 015-03E
Dec 07, 2019 - 04:50 AM EST / 2019.12.07 0950 UTC
Wind: from the WNW (290 degrees) at 5 MPH (4 KT):0
Visibility: greater than 7 mile(s):0
Sky conditions: mostly cloudy
Temperature: 41 F (5 C)
Dew Point: 37 F (3 C)
Relative Humidity: 86%
Pressure (altimeter): 29.09 in. Hg (0985 hPa)
ob: ESOE 070950Z 29004KT 9999 BKN020 05/03 Q0985
cycle: 10

Station Type Date Time Source
ESOE TAF 2016/03/16 04:36 UTC NOAA

TAF TAF ESOE 160330Z 1604/1624 23005KT 9000 BR NSC PROB40 1604/1607 1200 BR

Example: see airport list